sensor_id;sensor_type;location;lat;lon;timestamp;pressure;altitude;pressure_sealevel;temperature;humidity
17209;BME280;8720;48.488;9.202;2023-12-29T00:00:48;97121.97;;;15.81;48.82
17209;BME280;8720;48.488;9.202;2023-12-29T00:03:15;97109.63;;;15.82;48.93
17209;BME280;8720;48.488;9.202;2023-12-29T00:05:43;97100.81;;;15.83;48.78
17209;BME280;8720;48.488;9.202;2023-12-29T00:08:10;97096.38;;;15.83;48.50
17209;BME280;8720;48.488;9.202;2023-12-29T00:10:37;97102.59;;;15.82;48.71
17209;BME280;8720;48.488;9.202;2023-12-29T00:13:06;97090.72;;;15.72;48.51
17209;BME280;8720;48.488;9.202;2023-12-29T00:15:33;97103.47;;;15.83;48.70
17209;BME280;8720;48.488;9.202;2023-12-29T00:18:01;97099.88;;;15.84;48.62
17209;BME280;8720;48.488;9.202;2023-12-29T00:20:28;97097.16;;;15.85;48.38
17209;BME280;8720;48.488;9.202;2023-12-29T00:22:55;97084.03;;;15.84;48.50
17209;BME280;8720;48.488;9.202;2023-12-29T00:25:24;97083.19;;;15.83;48.36
17209;BME280;8720;48.488;9.202;2023-12-29T00:27:52;97072.63;;;15.83;48.36
17209;BME280;8720;48.488;9.202;2023-12-29T00:30:21;97085.03;;;15.81;48.35
17209;BME280;8720;48.488;9.202;2023-12-29T00:32:48;97087.63;;;15.83;48.42
17209;BME280;8720;48.488;9.202;2023-12-29T00:35:15;97085.81;;;15.83;48.02
17209;BME280;8720;48.488;9.202;2023-12-29T00:37:43;97066.44;;;15.84;48.21
17209;BME280;8720;48.488;9.202;2023-12-29T00:40:11;97075.16;;;15.86;48.10
17209;BME280;8720;48.488;9.202;2023-12-29T00:42:38;97077.72;;;15.88;48.00
17209;BME280;8720;48.488;9.202;2023-12-29T00:45:07;97073.31;;;15.88;48.00
17209;BME280;8720;48.488;9.202;2023-12-29T00:47:36;97071.47;;;15.90;47.92
17209;BME280;8720;48.488;9.202;2023-12-29T00:50:04;97063.53;;;15.90;48.01
17209;BME280;8720;48.488;9.202;2023-12-29T00:52:32;97055.09;;;15.82;47.66
17209;BME280;8720;48.488;9.202;2023-12-29T00:55:00;97071.31;;;15.93;47.92
17209;BME280;8720;48.488;9.202;2023-12-29T00:57:27;97073.88;;;15.95;47.52
17209;BME280;8720;48.488;9.202;2023-12-29T00:59:54;97075.59;;;15.96;47.61
17209;BME280;8720;48.488;9.202;2023-12-29T01:02:21;97053.97;;;15.88;47.32
17209;BME280;8720;48.488;9.202;2023-12-29T01:04:51;97066.69;;;15.98;47.67
17209;BME280;8720;48.488;9.202;2023-12-29T01:07:18;97066.56;;;16.01;47.65
17209;BME280;8720;48.488;9.202;2023-12-29T01:09:45;97073.56;;;16.02;47.68
17209;BME280;8720;48.488;9.202;2023-12-29T01:12:13;97074.41;;;16.03;47.32
17209;BME280;8720;48.488;9.202;2023-12-29T01:14:41;97076.13;;;16.04;47.30
17209;BME280;8720;48.488;9.202;2023-12-29T01:17:08;97076.97;;;16.04;47.41
17209;BME280;8720;48.488;9.202;2023-12-29T01:19:34;97078.75;;;16.04;47.47
17209;BME280;8720;48.488;9.202;2023-12-29T01:22:03;97090.13;;;16.06;47.06
17209;BME280;8720;48.488;9.202;2023-12-29T01:24:31;97088.31;;;16.06;47.37
17209;BME280;8720;48.488;9.202;2023-12-29T01:26:58;97094.44;;;16.07;47.60
17209;BME280;8720;48.488;9.202;2023-12-29T01:29:25;97092.75;;;16.06;47.47
17209;BME280;8720;48.488;9.202;2023-12-29T01:31:53;97098.94;;;16.05;47.62
17209;BME280;8720;48.488;9.202;2023-12-29T01:34:20;97114.91;;;16.02;47.59
17209;BME280;8720;48.488;9.202;2023-12-29T01:36:47;97112.34;;;16.00;47.27
17209;BME280;8720;48.488;9.202;2023-12-29T01:39:17;97102.78;;;15.98;47.59
17209;BME280;8720;48.488;9.202;2023-12-29T01:41:44;97098.38;;;15.98;47.60
17209;BME280;8720;48.488;9.202;2023-12-29T01:44:20;97100.06;;;15.99;47.58
17209;BME280;8720;48.488;9.202;2023-12-29T01:46:50;97113.34;;;15.98;47.84
17209;BME280;8720;48.488;9.202;2023-12-29T01:49:20;97111.59;;;15.97;47.43
17209;BME280;8720;48.488;9.202;2023-12-29T01:51:51;97112.63;;;15.94;47.47
17209;BME280;8720;48.488;9.202;2023-12-29T01:54:21;97102.19;;;15.91;47.59
17209;BME280;8720;48.488;9.202;2023-12-29T01:56:52;97106.63;;;15.91;47.76
17209;BME280;8720;48.488;9.202;2023-12-29T01:59:21;97081.75;;;15.76;47.90
17209;BME280;8720;48.488;9.202;2023-12-29T02:01:50;97107.72;;;15.85;47.70
17209;BME280;8720;48.488;9.202;2023-12-29T02:04:18;97096.44;;;15.82;47.78
17209;BME280;8720;48.488;9.202;2023-12-29T02:06:46;97094.06;;;15.76;48.19
17209;BME280;8720;48.488;9.202;2023-12-29T02:09:14;97091.44;;;15.76;48.11
17209;BME280;8720;48.488;9.202;2023-12-29T02:11:43;97077.59;;;15.71;48.00
17209;BME280;8720;48.488;9.202;2023-12-29T02:14:11;97091.56;;;15.73;48.05
17209;BME280;8720;48.488;9.202;2023-12-29T02:16:47;97084.56;;;15.72;48.04
17209;BME280;8720;48.488;9.202;2023-12-29T02:19:40;97070.13;;;15.60;48.48
17209;BME280;8720;48.488;9.202;2023-12-29T02:22:10;97077.00;;;15.64;48.46
17209;BME280;8720;48.488;9.202;2023-12-29T02:24:38;97085.84;;;15.63;48.25
17209;BME280;8720;48.488;9.202;2023-12-29T02:27:28;97084.25;;;15.59;48.30
17209;BME280;8720;48.488;9.202;2023-12-29T02:30:08;97072.13;;;15.55;48.66
17209;BME280;8720;48.488;9.202;2023-12-29T02:32:41;97067.91;;;15.51;48.54
17209;BME280;8720;48.488;9.202;2023-12-29T02:35:23;97066.25;;;15.48;48.49
17209;BME280;8720;48.488;9.202;2023-12-29T02:37:54;97068.09;;;15.46;48.72
17209;BME280;8720;48.488;9.202;2023-12-29T02:40:22;97073.50;;;15.43;48.98
17209;BME280;8720;48.488;9.202;2023-12-29T02:42:51;97070.00;;;15.43;48.84
17209;BME280;8720;48.488;9.202;2023-12-29T02:45:19;97070.94;;;15.42;48.92
17209;BME280;8720;48.488;9.202;2023-12-29T02:47:47;97063.91;;;15.41;49.20
17209;BME280;8720;48.488;9.202;2023-12-29T02:50:15;97055.13;;;15.42;49.10
17209;BME280;8720;48.488;9.202;2023-12-29T02:52:43;97044.06;;;15.32;48.93
17209;BME280;8720;48.488;9.202;2023-12-29T02:55:10;97050.72;;;15.42;48.89
17209;BME280;8720;48.488;9.202;2023-12-29T02:57:38;97058.53;;;15.44;48.86
17209;BME280;8720;48.488;9.202;2023-12-29T03:00:08;97046.22;;;15.44;49.18
17209;BME280;8720;48.488;9.202;2023-12-29T03:05:04;97060.31;;;15.43;48.86
17209;BME280;8720;48.488;9.202;2023-12-29T03:07:32;97044.50;;;15.43;48.82
17209;BME280;8720;48.488;9.202;2023-12-29T03:09:59;97047.22;;;15.42;49.01
17209;BME280;8720;48.488;9.202;2023-12-29T03:12:26;97033.31;;;15.37;49.03
17209;BME280;8720;48.488;9.202;2023-12-29T03:14:55;97029.63;;;15.42;48.97
17209;BME280;8720;48.488;9.202;2023-12-29T03:17:23;97043.69;;;15.41;49.01
17209;BME280;8720;48.488;9.202;2023-12-29T03:19:52;97015.91;;;15.33;48.68
17209;BME280;8720;48.488;9.202;2023-12-29T03:22:19;97028.00;;;15.38;48.99
17209;BME280;8720;48.488;9.202;2023-12-29T03:24:48;97011.44;;;15.35;49.12
17209;BME280;8720;48.488;9.202;2023-12-29T03:27:15;97015.06;;;15.32;49.28
17209;BME280;8720;48.488;9.202;2023-12-29T03:29:43;97011.72;;;15.29;49.26
17209;BME280;8720;48.488;9.202;2023-12-29T03:32:10;97013.66;;;15.24;49.53
17209;BME280;8720;48.488;9.202;2023-12-29T03:34:39;97015.72;;;15.17;49.67
17209;BME280;8720;48.488;9.202;2023-12-29T03:37:07;97005.56;;;15.08;49.65
17209;BME280;8720;48.488;9.202;2023-12-29T03:39:34;97012.72;;;15.05;49.63
17209;BME280;8720;48.488;9.202;2023-12-29T03:42:02;97006.81;;;15.00;49.83
17209;BME280;8720;48.488;9.202;2023-12-29T03:44:30;97006.13;;;14.95;49.89
17209;BME280;8720;48.488;9.202;2023-12-29T03:46:57;96997.63;;;14.88;49.85
17209;BME280;8720;48.488;9.202;2023-12-29T03:49:24;97006.66;;;14.83;49.93
17209;BME280;8720;48.488;9.202;2023-12-29T03:51:53;97005.00;;;14.80;49.99
17209;BME280;8720;48.488;9.202;2023-12-29T03:54:20;96998.06;;;14.78;50.27
17209;BME280;8720;48.488;9.202;2023-12-29T03:56:48;97009.47;;;14.78;50.29
17209;BME280;8720;48.488;9.202;2023-12-29T03:59:15;97007.72;;;14.77;50.36
17209;BME280;8720;48.488;9.202;2023-12-29T04:01:42;96992.00;;;14.76;50.76
17209;BME280;8720;48.488;9.202;2023-12-29T04:04:10;97005.00;;;14.80;50.67
17209;BME280;8720;48.488;9.202;2023-12-29T04:06:37;97004.03;;;14.83;50.58
17209;BME280;8720;48.488;9.202;2023-12-29T04:09:06;97004.81;;;14.85;50.60
17209;BME280;8720;48.488;9.202;2023-12-29T04:11:34;97016.13;;;14.87;50.78
17209;BME280;8720;48.488;9.202;2023-12-29T04:14:01;96995.25;;;14.82;50.81
17209;BME280;8720;48.488;9.202;2023-12-29T04:16:28;97004.03;;;14.83;50.67
17209;BME280;8720;48.488;9.202;2023-12-29T04:18:55;97015.69;;;14.97;50.81
17209;BME280;8720;48.488;9.202;2023-12-29T04:21:23;97012.09;;;15.00;50.70
17209;BME280;8720;48.488;9.202;2023-12-29T04:23:50;97015.50;;;15.02;50.53
17209;BME280;8720;48.488;9.202;2023-12-29T04:26:18;97004.84;;;15.05;50.79
17209;BME280;8720;48.488;9.202;2023-12-29T04:28:46;97002.13;;;15.06;50.73
17209;BME280;8720;48.488;9.202;2023-12-29T04:31:13;97001.22;;;15.07;50.81
17209;BME280;8720;48.488;9.202;2023-12-29T04:33:40;97026.56;;;15.10;50.79
17209;BME280;8720;48.488;9.202;2023-12-29T04:36:08;96993.16;;;15.10;50.95
17209;BME280;8720;48.488;9.202;2023-12-29T04:38:35;96997.56;;;15.10;50.63
17209;BME280;8720;48.488;9.202;2023-12-29T04:41:02;96998.66;;;15.06;50.77
17209;BME280;8720;48.488;9.202;2023-12-29T04:43:31;97001.00;;;15.12;50.73
17209;BME280;8720;48.488;9.202;2023-12-29T04:45:58;97002.84;;;15.10;50.94
17209;BME280;8720;48.488;9.202;2023-12-29T04:48:26;97002.09;;;15.08;50.87
17209;BME280;8720;48.488;9.202;2023-12-29T04:50:53;97000.44;;;15.05;50.59
17209;BME280;8720;48.488;9.202;2023-12-29T04:53:20;97004.75;;;15.06;50.99
17209;BME280;8720;48.488;9.202;2023-12-29T04:55:48;97007.47;;;15.05;50.64
17209;BME280;8720;48.488;9.202;2023-12-29T04:58:15;97010.03;;;15.06;50.68
17209;BME280;8720;48.488;9.202;2023-12-29T05:00:44;97004.66;;;15.09;51.20
17209;BME280;8720;48.488;9.202;2023-12-29T05:03:11;97006.34;;;15.10;50.76
17209;BME280;8720;48.488;9.202;2023-12-29T05:05:38;97007.28;;;15.09;50.72
17209;BME280;8720;48.488;9.202;2023-12-29T05:08:06;96993.09;;;15.12;50.94
17209;BME280;8720;48.488;9.202;2023-12-29T05:10:33;96997.41;;;15.14;50.69
17209;BME280;8720;48.488;9.202;2023-12-29T05:13:02;96987.00;;;15.11;50.64
17209;BME280;8720;48.488;9.202;2023-12-29T05:15:30;96984.69;;;15.04;51.07
17209;BME280;8720;48.488;9.202;2023-12-29T05:17:58;96996.06;;;15.04;50.80
17209;BME280;8720;48.488;9.202;2023-12-29T05:20:26;96992.69;;;15.01;51.06
17209;BME280;8720;48.488;9.202;2023-12-29T05:22:53;96998.94;;;14.98;51.17
17209;BME280;8720;48.488;9.202;2023-12-29T05:25:20;96996.38;;;14.97;51.05
17209;BME280;8720;48.488;9.202;2023-12-29T05:27:50;97005.16;;;14.97;50.85
17209;BME280;8720;48.488;9.202;2023-12-29T05:30:17;96988.56;;;14.95;51.02
17209;BME280;8720;48.488;9.202;2023-12-29T05:32:44;96996.28;;;15.00;51.04
17209;BME280;8720;48.488;9.202;2023-12-29T05:35:13;97006.81;;;15.00;50.97
17209;BME280;8720;48.488;9.202;2023-12-29T05:37:41;97005.94;;;14.99;50.97
17209;BME280;8720;48.488;9.202;2023-12-29T05:40:09;97011.28;;;14.98;51.29
17209;BME280;8720;48.488;9.202;2023-12-29T05:42:36;96992.69;;;14.81;51.23
17209;BME280;8720;48.488;9.202;2023-12-29T05:45:05;97008.75;;;14.95;51.13
17209;BME280;8720;48.488;9.202;2023-12-29T05:47:32;97013.22;;;14.93;51.53
17209;BME280;8720;48.488;9.202;2023-12-29T05:50:00;97008.97;;;14.90;51.38
17209;BME280;8720;48.488;9.202;2023-12-29T05:52:29;97016.13;;;14.87;51.17
17209;BME280;8720;48.488;9.202;2023-12-29T05:54:56;97010.91;;;14.85;51.45
17209;BME280;8720;48.488;9.202;2023-12-29T05:57:23;97015.34;;;14.85;51.42
17209;BME280;8720;48.488;9.202;2023-12-29T05:59:51;97006.50;;;14.86;51.24
17209;BME280;8720;48.488;9.202;2023-12-29T06:02:18;97002.84;;;14.90;51.33
17209;BME280;8720;48.488;9.202;2023-12-29T06:04:45;97013.22;;;14.93;51.78
17209;BME280;8720;48.488;9.202;2023-12-29T06:07:13;97012.19;;;14.97;51.55
17209;BME280;8720;48.488;9.202;2023-12-29T06:09:42;97020.81;;;15.00;51.65
17209;BME280;8720;48.488;9.202;2023-12-29T06:12:09;97016.41;;;15.01;51.85
17209;BME280;8720;48.488;9.202;2023-12-29T06:14:37;97012.81;;;15.03;51.50
17209;BME280;8720;48.488;9.202;2023-12-29T06:17:04;97005.81;;;15.02;51.70
17209;BME280;8720;48.488;9.202;2023-12-29T06:19:31;97026.53;;;15.11;51.52
17209;BME280;8720;48.488;9.202;2023-12-29T06:21:59;97015.91;;;15.13;51.55
17209;BME280;8720;48.488;9.202;2023-12-29T06:24:26;97019.28;;;15.16;51.50
17209;BME280;8720;48.488;9.202;2023-12-29T06:26:55;97020.00;;;15.20;51.66
17209;BME280;8720;48.488;9.202;2023-12-29T06:29:23;97024.22;;;15.24;51.69
17209;BME280;8720;48.488;9.202;2023-12-29T06:31:50;97019.66;;;15.27;51.73
17209;BME280;8720;48.488;9.202;2023-12-29T06:34:17;97008.28;;;15.27;51.75
17209;BME280;8720;48.488;9.202;2023-12-29T06:36:45;97017.81;;;15.29;51.58
17209;BME280;8720;48.488;9.202;2023-12-29T06:39:12;97009.66;;;15.35;51.65
17209;BME280;8720;48.488;9.202;2023-12-29T06:41:39;97006.94;;;15.37;51.36
17209;BME280;8720;48.488;9.202;2023-12-29T06:44:08;97005.44;;;15.31;51.28
17209;BME280;8720;48.488;9.202;2023-12-29T06:46:37;97007.03;;;15.35;51.34
17209;BME280;8720;48.488;9.202;2023-12-29T06:49:06;96997.19;;;15.39;51.27
17209;BME280;8720;48.488;9.202;2023-12-29T06:51:33;96995.44;;;15.39;51.63
17209;BME280;8720;48.488;9.202;2023-12-29T06:54:01;97013.00;;;15.39;51.44
17209;BME280;8720;48.488;9.202;2023-12-29T06:56:29;97005.97;;;15.39;51.55
17209;BME280;8720;48.488;9.202;2023-12-29T06:58:56;96983.22;;;15.37;51.42
17209;BME280;8720;48.488;9.202;2023-12-29T07:01:25;96991.03;;;15.40;51.53
17209;BME280;8720;48.488;9.202;2023-12-29T07:03:52;96987.50;;;15.39;51.27
17209;BME280;8720;48.488;9.202;2023-12-29T07:06:20;96992.88;;;15.38;51.07
17209;BME280;8720;48.488;9.202;2023-12-29T07:08:47;96990.31;;;15.36;51.14
17209;BME280;8720;48.488;9.202;2023-12-29T07:11:14;96993.63;;;15.62;50.06
17209;BME280;8720;48.488;9.202;2023-12-29T07:13:42;96982.88;;;15.46;50.54
17209;BME280;8720;48.488;9.202;2023-12-29T07:16:09;96999.53;;;15.46;50.63
17209;BME280;8720;48.488;9.202;2023-12-29T07:18:38;96995.34;;;15.41;50.54
17209;BME280;8720;48.488;9.202;2023-12-29T07:21:06;97014.81;;;15.38;50.51
17209;BME280;8720;48.488;9.202;2023-12-29T07:23:33;97004.38;;;15.35;50.76
17209;BME280;8720;48.488;9.202;2023-12-29T07:26:00;97007.16;;;15.32;50.62
17209;BME280;8720;48.488;9.202;2023-12-29T07:28:28;97001.19;;;15.29;50.50
17209;BME280;8720;48.488;9.202;2023-12-29T07:30:55;97003.03;;;15.27;50.57
17209;BME280;8720;48.488;9.202;2023-12-29T07:33:23;97005.69;;;15.25;50.79
17209;BME280;8720;48.488;9.202;2023-12-29T07:35:52;96998.84;;;15.21;50.66
17209;BME280;8720;48.488;9.202;2023-12-29T07:38:19;97013.81;;;15.21;50.71
17209;BME280;8720;48.488;9.202;2023-12-29T07:40:47;97008.63;;;15.19;51.24
17209;BME280;8720;48.488;9.202;2023-12-29T07:43:14;97009.44;;;15.20;50.86
17209;BME280;8720;48.488;9.202;2023-12-29T07:45:42;97011.25;;;15.19;50.73
17209;BME280;8720;48.488;9.202;2023-12-29T07:48:10;97008.72;;;15.16;50.59
17209;BME280;8720;48.488;9.202;2023-12-29T07:50:37;97014.00;;;15.16;50.67
17209;BME280;8720;48.488;9.202;2023-12-29T07:53:06;97014.88;;;15.17;50.62
17209;BME280;8720;48.488;9.202;2023-12-29T07:55:37;97011.28;;;15.18;51.13
17209;BME280;8720;48.488;9.202;2023-12-29T07:58:06;97002.59;;;15.16;51.04
17209;BME280;8720;48.488;9.202;2023-12-29T08:00:36;97001.53;;;15.20;50.94
17209;BME280;8720;48.488;9.202;2023-12-29T08:03:04;96994.34;;;15.23;50.82
17209;BME280;8720;48.488;9.202;2023-12-29T08:05:33;96993.56;;;15.21;50.93
17209;BME280;8720;48.488;9.202;2023-12-29T08:08:01;96996.97;;;15.25;50.88
17209;BME280;8720;48.488;9.202;2023-12-29T08:10:30;97007.44;;;15.26;50.84
17209;BME280;8720;48.488;9.202;2023-12-29T08:12:59;97001.44;;;15.23;50.64
17209;BME280;8720;48.488;9.202;2023-12-29T08:15:27;97009.00;;;15.30;50.98
17209;BME280;8720;48.488;9.202;2023-12-29T08:17:56;97008.16;;;15.30;50.84
17209;BME280;8720;48.488;9.202;2023-12-29T08:20:23;97020.03;;;15.40;51.27
17209;BME280;8720;48.488;9.202;2023-12-29T08:22:50;97011.00;;;15.45;51.11
17209;BME280;8720;48.488;9.202;2023-12-29T08:25:18;97004.63;;;15.51;51.07
17209;BME280;8720;48.488;9.202;2023-12-29T08:27:46;97014.91;;;15.57;51.34
17209;BME280;8720;48.488;9.202;2023-12-29T08:30:14;97016.47;;;15.61;50.59
17209;BME280;8720;48.488;9.202;2023-12-29T08:32:41;97020.47;;;15.70;50.92
17209;BME280;8720;48.488;9.202;2023-12-29T08:35:09;97013.31;;;15.73;51.14
17209;BME280;8720;48.488;9.202;2023-12-29T08:37:36;97022.38;;;15.86;51.06
17209;BME280;8720;48.488;9.202;2023-12-29T08:40:05;97023.75;;;15.95;50.86
17209;BME280;8720;48.488;9.202;2023-12-29T08:42:33;97020.78;;;16.02;50.89
17209;BME280;8720;48.488;9.202;2023-12-29T08:45:03;97020.44;;;16.10;50.43
17209;BME280;8720;48.488;9.202;2023-12-29T08:47:31;97016.66;;;16.15;50.53
17209;BME280;8720;48.488;9.202;2023-12-29T08:49:58;97015.44;;;16.22;50.42
17209;BME280;8720;48.488;9.202;2023-12-29T08:52:25;97004.50;;;16.30;50.54
17209;BME280;8720;48.488;9.202;2023-12-29T08:54:53;96996.88;;;16.24;50.36
17209;BME280;8720;48.488;9.202;2023-12-29T08:57:20;97018.63;;;16.48;50.21
17209;BME280;8720;48.488;9.202;2023-12-29T08:59:47;97014.66;;;16.58;50.36
17209;BME280;8720;48.488;9.202;2023-12-29T09:02:19;97001.78;;;16.69;50.36
17209;BME280;8720;48.488;9.202;2023-12-29T09:04:46;97013.78;;;16.76;50.00
17209;BME280;8720;48.488;9.202;2023-12-29T09:07:13;97012.56;;;16.83;49.78
17209;BME280;8720;48.488;9.202;2023-12-29T09:09:41;97026.31;;;16.89;49.84
17209;BME280;8720;48.488;9.202;2023-12-29T09:12:08;97017.25;;;16.95;49.68
17209;BME280;8720;48.488;9.202;2023-12-29T09:14:36;97004.66;;;17.00;49.39
17209;BME280;8720;48.488;9.202;2023-12-29T09:17:03;97006.22;;;17.04;49.26
17209;BME280;8720;48.488;9.202;2023-12-29T09:19:32;97006.91;;;17.07;49.10
17209;BME280;8720;48.488;9.202;2023-12-29T09:21:59;97022.19;;;17.19;48.76
17209;BME280;8720;48.488;9.202;2023-12-29T09:24:27;97015.84;;;17.22;49.01
17209;BME280;8720;48.488;9.202;2023-12-29T09:26:54;97033.75;;;17.34;48.58
17209;BME280;8720;48.488;9.202;2023-12-29T09:29:22;97023.81;;;17.39;48.47
17209;BME280;8720;48.488;9.202;2023-12-29T09:31:49;97030.50;;;17.46;48.78
17209;BME280;8720;48.488;9.202;2023-12-29T09:34:16;97038.16;;;17.52;48.55
17209;BME280;8720;48.488;9.202;2023-12-29T09:36:45;97032.69;;;17.55;48.02
17209;BME280;8720;48.488;9.202;2023-12-29T09:39:13;97035.25;;;17.57;48.16
17209;BME280;8720;48.488;9.202;2023-12-29T09:41:46;97036.13;;;17.57;48.22
17209;BME280;8720;48.488;9.202;2023-12-29T09:44:14;97027.59;;;17.52;47.77
17209;BME280;8720;48.488;9.202;2023-12-29T09:46:42;97041.19;;;17.62;48.11
17209;BME280;8720;48.488;9.202;2023-12-29T09:49:11;97023.69;;;17.59;47.87
17209;BME280;8720;48.488;9.202;2023-12-29T09:51:41;97038.94;;;17.71;47.87
17209;BME280;8720;48.488;9.202;2023-12-29T09:54:11;97022.09;;;17.72;47.45
17209;BME280;8720;48.488;9.202;2023-12-29T09:56:39;97035.00;;;17.78;47.40
17209;BME280;8720;48.488;9.202;2023-12-29T09:59:10;97045.16;;;17.87;47.73
17209;BME280;8720;48.488;9.202;2023-12-29T10:01:41;97053.69;;;17.92;47.56
17209;BME280;8720;48.488;9.202;2023-12-29T10:04:08;97019.81;;;17.82;47.54
17209;BME280;8720;48.488;9.202;2023-12-29T10:06:39;97047.06;;;18.01;47.33
17209;BME280;8720;48.488;9.202;2023-12-29T10:09:12;97051.31;;;18.03;47.20
17209;BME280;8720;48.488;9.202;2023-12-29T10:11:42;97041.59;;;18.04;47.33
17209;BME280;8720;48.488;9.202;2023-12-29T10:14:22;97045.09;;;18.04;46.97
17209;BME280;8720;48.488;9.202;2023-12-29T10:17:03;97054.91;;;18.02;47.23
17209;BME280;8720;48.488;9.202;2023-12-29T10:19:37;97039.81;;;18.04;46.89
17209;BME280;8720;48.488;9.202;2023-12-29T10:22:15;97035.44;;;18.03;46.84
17209;BME280;8720;48.488;9.202;2023-12-29T10:24:48;97038.09;;;18.03;46.84
17209;BME280;8720;48.488;9.202;2023-12-29T10:27:15;97032.00;;;18.01;47.07
17209;BME280;8720;48.488;9.202;2023-12-29T10:29:43;97030.22;;;18.02;46.97
17209;BME280;8720;48.488;9.202;2023-12-29T10:32:10;97034.66;;;18.01;46.74
17209;BME280;8720;48.488;9.202;2023-12-29T10:34:38;97025.16;;;17.97;46.80
17209;BME280;8720;48.488;9.202;2023-12-29T10:37:05;97036.72;;;17.96;46.86
17209;BME280;8720;48.488;9.202;2023-12-29T10:39:54;97031.50;;;17.95;46.72
17209;BME280;8720;48.488;9.202;2023-12-29T10:42:22;97023.72;;;17.92;46.48
17209;BME280;8720;48.488;9.202;2023-12-29T10:45:05;97019.28;;;17.92;46.44
17209;BME280;8720;48.488;9.202;2023-12-29T10:47:33;97016.63;;;17.92;46.53
17209;BME280;8720;48.488;9.202;2023-12-29T10:50:02;97014.91;;;17.91;46.20
17209;BME280;8720;48.488;9.202;2023-12-29T10:52:32;96994.00;;;17.87;46.38
17209;BME280;8720;48.488;9.202;2023-12-29T10:55:08;96996.47;;;17.90;46.23
17209;BME280;8720;48.488;9.202;2023-12-29T10:57:36;96989.38;;;17.90;46.36
17209;BME280;8720;48.488;9.202;2023-12-29T11:00:05;96991.16;;;17.90;46.12
17209;BME280;8720;48.488;9.202;2023-12-29T11:02:34;96976.28;;;17.72;46.00
17209;BME280;8720;48.488;9.202;2023-12-29T11:05:06;96984.31;;;17.86;45.79
17209;BME280;8720;48.488;9.202;2023-12-29T11:07:37;96982.94;;;17.79;45.85
17209;BME280;8720;48.488;9.202;2023-12-29T11:10:08;96973.56;;;17.73;46.24
17209;BME280;8720;48.488;9.202;2023-12-29T11:12:37;96972.53;;;17.76;46.14
17209;BME280;8720;48.488;9.202;2023-12-29T11:15:07;96963.81;;;17.74;45.97
17209;BME280;8720;48.488;9.202;2023-12-29T11:17:36;96968.09;;;17.76;46.20
17209;BME280;8720;48.488;9.202;2023-12-29T11:20:05;96966.97;;;17.80;46.32
17209;BME280;8720;48.488;9.202;2023-12-29T11:22:33;96967.28;;;18.07;44.30
17209;BME280;8720;48.488;9.202;2023-12-29T11:25:00;96971.66;;;18.08;44.75
17209;BME280;8720;48.488;9.202;2023-12-29T11:27:30;96960.97;;;18.09;45.06
17209;BME280;8720;48.488;9.202;2023-12-29T11:29:59;96954.75;;;18.10;45.23
17209;BME280;8720;48.488;9.202;2023-12-29T11:32:37;96963.06;;;18.20;45.02
17209;BME280;8720;48.488;9.202;2023-12-29T11:35:16;96958.78;;;18.17;45.12
17209;BME280;8720;48.488;9.202;2023-12-29T11:38:08;96964.50;;;18.26;45.10
17209;BME280;8720;48.488;9.202;2023-12-29T11:40:46;96952.09;;;18.26;45.20
17209;BME280;8720;48.488;9.202;2023-12-29T11:43:19;96966.63;;;18.35;45.36
17209;BME280;8720;48.488;9.202;2023-12-29T11:45:46;96964.66;;;18.38;45.36
17209;BME280;8720;48.488;9.202;2023-12-29T11:48:53;96962.09;;;18.37;45.53
17209;BME280;8720;48.488;9.202;2023-12-29T11:51:32;96958.69;;;18.35;45.34
17209;BME280;8720;48.488;9.202;2023-12-29T11:54:01;96956.28;;;18.30;45.35
17209;BME280;8720;48.488;9.202;2023-12-29T11:56:36;96960.91;;;18.27;45.16
17209;BME280;8720;48.488;9.202;2023-12-29T11:59:16;96955.03;;;18.22;45.26
17209;BME280;8720;48.488;9.202;2023-12-29T12:01:46;96949.88;;;18.18;45.73
17209;BME280;8720;48.488;9.202;2023-12-29T12:04:37;96946.47;;;18.16;45.98
17209;BME280;8720;48.488;9.202;2023-12-29T12:07:07;96939.47;;;18.15;45.73
17209;BME280;8720;48.488;9.202;2023-12-29T12:09:36;96947.50;;;18.14;45.49
17209;BME280;8720;48.488;9.202;2023-12-29T12:12:04;96939.81;;;18.09;45.43
17209;BME280;8720;48.488;9.202;2023-12-29T12:14:50;96939.34;;;18.01;45.57
17209;BME280;8720;48.488;9.202;2023-12-29T12:17:29;96941.56;;;17.93;45.45
17209;BME280;8720;48.488;9.202;2023-12-29T12:19:59;96933.88;;;17.89;45.41
17209;BME280;8720;48.488;9.202;2023-12-29T12:22:31;96945.50;;;17.86;45.85
17209;BME280;8720;48.488;9.202;2023-12-29T12:24:59;96935.00;;;17.85;45.92
17209;BME280;8720;48.488;9.202;2023-12-29T12:27:28;96940.28;;;17.85;45.81
17209;BME280;8720;48.488;9.202;2023-12-29T12:29:58;96942.16;;;17.83;45.53
17209;BME280;8720;48.488;9.202;2023-12-29T12:32:27;96935.22;;;17.80;45.69
17209;BME280;8720;48.488;9.202;2023-12-29T12:34:55;96939.84;;;17.77;45.60
17209;BME280;8720;48.488;9.202;2023-12-29T12:37:25;96931.03;;;17.76;45.93
17209;BME280;8720;48.488;9.202;2023-12-29T12:39:53;96925.75;;;17.76;45.81
17209;BME280;8720;48.488;9.202;2023-12-29T12:42:22;96900.28;;;17.58;45.63
17209;BME280;8720;48.488;9.202;2023-12-29T12:45:04;96931.44;;;17.69;45.50
17209;BME280;8720;48.488;9.202;2023-12-29T12:47:37;96924.69;;;17.63;45.28
17209;BME280;8720;48.488;9.202;2023-12-29T12:50:09;96921.50;;;17.57;45.43
17209;BME280;8720;48.488;9.202;2023-12-29T12:52:38;96932.34;;;17.52;45.25
17209;BME280;8720;48.488;9.202;2023-12-29T12:55:08;96919.22;;;17.51;45.55
17209;BME280;8720;48.488;9.202;2023-12-29T12:57:36;96923.72;;;17.49;45.33
17209;BME280;8720;48.488;9.202;2023-12-29T13:00:07;96922.91;;;17.47;45.31
17209;BME280;8720;48.488;9.202;2023-12-29T13:02:36;96914.13;;;17.46;45.29
17209;BME280;8720;48.488;9.202;2023-12-29T13:05:07;96902.16;;;17.39;45.16
17209;BME280;8720;48.488;9.202;2023-12-29T13:07:35;96927.16;;;17.51;45.38
17209;BME280;8720;48.488;9.202;2023-12-29T13:10:04;96916.69;;;17.48;44.85
17209;BME280;8720;48.488;9.202;2023-12-29T13:12:31;96927.44;;;17.45;44.93
17209;BME280;8720;48.488;9.202;2023-12-29T13:15:08;96921.38;;;17.43;45.36
17209;BME280;8720;48.488;9.202;2023-12-29T13:17:36;96916.22;;;17.40;45.18
17209;BME280;8720;48.488;9.202;2023-12-29T13:20:04;96919.13;;;17.35;45.13
17209;BME280;8720;48.488;9.202;2023-12-29T13:22:32;96914.94;;;17.31;45.17